Dugger, Indiana
Current Conditions -  °F | °C
As of 10:55 AM on Thursday 30 Oct 2014 (Local Time) from KRSV Reporting Station
Clear Clear  
Wind Chill: 47°   Ceiling: Unl
Heat Index: 47°   Visibility: 10mi
Dew Point: 41°   Wind: 0mph
Humidity: 80%   Direction: NA
Pressure: 30.19"   Gusts: NA
Location:  39.07°N, 87.26°W
Report Text: KRSV 301455Z AUTO 00000KT 10SM CLR 08/05 A3019 RMK AO2 T00840052
Loading
Personal Weather Stations






























Interactive Weather Map
Tropical Storm Tracking
New forecast layout! Learn more

10-Day Weather Forecast

Advertisements
Track Severe Weather on mobile